METAR Data

Data at: 2157 UTC 01 Dec 2021

METAR for:CYQI (Yarmouth Arpt, NS, CA)
Text:CYQI 012100Z 26011G16KT 12SM BKN027 BKN068 06/02 A3005 RMK CU5AC2 SLP178
Temperature: 6.0°C ( 43°F)
Dewpoint: 2.0°C ( 36°F) [RH = 75%]
Pressure (altimeter):30.05 inches Hg (1017.7 mb) [Sea level pressure: 1017.8 mb]
Winds:from the W (260 degrees) at 13 MPH (11 knots; 5.7 m/s) gusting to 18 MPH (16 knots; 8.2 m/s)
Visibility: 12 sm ( 19 km)
Ceiling:2700 feet AGL
Clouds: broken clouds at 2700 feet AGL, broken clouds at 6800 feet AGL